Time;durP1;ratioP1;P1;durP2;ratioP2;P2;SDS_P1;SDS_P2;PMS_P1;PMS_P2;Temp;Humidity;BMP_temperature;BMP_pressure;BME280_temperature;BME280_humidity;BME280_pressure;Samples;Min_cycle;Max_cycle;Signal;HPM_P1;HPM_P2
2024/04/05 00:02:22;;;;;;;5.03;1.90;;;14.50;99.90;;;;;;5070536;28;20211;-76
2024/04/05 00:04:48;;;;;;;2.53;1.10;;;14.50;99.90;;;;;;5069158;28;20203;-76
2024/04/05 00:07:14;;;;;;;4.67;1.60;;;14.50;99.90;;;;;;5068574;28;20207;-76
2024/04/05 00:09:41;;;;;;;6.47;1.03;;;14.50;99.90;;;;;;5072778;28;20640;-76
2024/04/05 00:12:06;;;;;;;5.03;1.20;;;14.50;99.90;;;;;;5072726;28;21035;-76
2024/04/05 00:14:32;;;;;;;8.00;1.93;;;14.50;99.90;;;;;;5056026;28;20586;-76
2024/04/05 00:16:58;;;;;;;6.03;1.87;;;14.50;99.90;;;;;;5072470;28;20261;-76
2024/04/05 00:19:24;;;;;;;5.00;1.23;;;14.50;99.90;;;;;;5072221;28;20756;-76
2024/04/05 00:21:50;;;;;;;7.20;1.70;;;14.50;99.90;;;;;;5072355;28;20723;-76
2024/04/05 00:24:16;;;;;;;8.43;1.53;;;14.50;99.90;;;;;;5073408;28;21215;-76
2024/04/05 00:26:42;;;;;;;6.43;1.47;;;14.50;99.90;;;;;;5070227;28;20692;-75
2024/04/05 00:29:07;;;;;;;5.80;1.33;;;14.40;99.90;;;;;;5068542;28;20254;-75
2024/04/05 00:31:34;;;;;;;5.17;1.33;;;14.50;99.90;;;;;;5072559;28;20219;-76
2024/04/05 00:34:00;;;;;;;7.57;3.33;;;14.40;99.90;;;;;;5073365;28;20219;-76
2024/04/05 00:36:25;;;;;;;9.27;4.10;;;14.40;99.90;;;;;;5073581;28;20631;-76
2024/04/05 00:38:54;;;;;;;6.70;2.60;;;14.40;99.90;;;;;;5071898;28;20176;-75
2024/04/05 00:41:20;;;;;;;5.87;2.80;;;14.40;99.90;;;;;;5071956;28;20848;-75
2024/04/05 00:43:46;;;;;;;7.47;1.97;;;14.40;99.90;;;;;;5073373;28;20613;-75
2024/04/05 00:46:12;;;;;;;7.47;2.63;;;14.40;99.90;;;;;;5071940;28;21255;-75
2024/04/05 00:48:39;;;;;;;5.17;1.30;;;14.40;99.90;;;;;;5071652;28;20172;-75
2024/04/05 00:51:06;;;;;;;6.83;1.83;;;14.40;99.90;;;;;;5073310;28;20214;-76
2024/04/05 00:53:32;;;;;;;5.23;1.50;;;14.30;99.90;;;;;;5068122;28;20626;-75
2024/04/05 00:55:59;;;;;;;4.27;1.40;;;14.30;99.90;;;;;;5071769;28;20594;-76
2024/04/05 00:58:26;;;;;;;6.50;1.60;;;14.30;99.90;;;;;;5067382;28;20647;-76
2024/04/05 01:00:53;;;;;;;7.43;1.80;;;14.30;99.90;;;;;;5072810;28;20630;-75
2024/04/05 01:03:19;;;;;;;7.13;1.57;;;14.30;99.90;;;;;;5072742;28;20618;-77
2024/04/05 01:05:46;;;;;;;5.77;1.60;;;14.20;99.90;;;;;;5071686;28;20571;-77
2024/04/05 01:08:14;;;;;;;5.83;1.80;;;14.20;99.90;;;;;;5072538;28;20643;-77
2024/04/05 01:10:41;;;;;;;7.37;1.90;;;14.20;99.90;;;;;;5071705;28;20603;-77
2024/04/05 01:13:10;;;;;;;7.13;1.87;;;14.10;99.90;;;;;;5072662;28;20630;-77
2024/04/05 01:15:36;;;;;;;4.40;1.17;;;14.10;99.90;;;;;;5071505;28;20967;-77
2024/04/05 01:18:05;;;;;;;6.60;1.60;;;14.10;99.90;;;;;;5071029;28;20605;-76
2024/04/05 01:20:32;;;;;;;5.70;1.50;;;14.10;99.90;;;;;;5070587;28;20622;-76
2024/04/05 01:23:02;;;;;;;7.73;1.80;;;14.00;99.90;;;;;;5072518;28;20970;-76
2024/04/05 01:25:29;;;;;;;6.77;2.20;;;14.00;99.90;;;;;;5072599;28;20575;-76
2024/04/05 01:27:55;;;;;;;6.83;1.90;;;14.00;99.90;;;;;;5072327;28;20601;-76
2024/04/05 01:30:21;;;;;;;4.87;1.70;;;14.00;99.90;;;;;;5071138;28;20887;-77
2024/04/05 01:33:01;;;;;;;5.40;1.60;;;14.00;99.90;;;;;;5070927;28;21378;-76
2024/04/05 01:35:27;;;;;;;5.70;1.30;;;14.00;99.90;;;;;;5071192;28;20597;-77
2024/04/05 01:37:53;;;;;;;4.77;1.50;;;14.00;99.90;;;;;;5071996;28;20690;-77
2024/04/05 01:40:20;;;;;;;3.50;1.50;;;14.00;99.90;;;;;;5054317;28;21015;-77
2024/04/05 01:42:45;;;;;;;4.60;1.10;;;14.10;99.90;;;;;;5072072;28;20645;-76
2024/04/05 01:45:11;;;;;;;7.20;1.40;;;14.00;99.90;;;;;;5072153;28;20578;-76
2024/04/05 01:47:37;;;;;;;6.57;1.83;;;14.00;99.90;;;;;;5070649;28;20587;-76
2024/04/05 01:50:03;;;;;;;5.23;2.13;;;14.00;99.90;;;;;;5070792;28;20184;-77
2024/04/05 01:52:29;;;;;;;5.20;1.40;;;14.00;99.90;;;;;;5070609;28;20192;-77
2024/04/05 01:54:56;;;;;;;7.73;2.10;;;14.00;99.90;;;;;;5071920;28;20618;-77
2024/04/05 01:57:22;;;;;;;1.93;1.20;;;14.00;99.90;;;;;;5071579;28;20614;-77
2024/04/05 01:59:55;;;;;;;4.53;1.57;;;14.00;99.90;;;;;;5072035;28;20591;-77
2024/04/05 02:02:22;;;;;;;9.03;1.77;;;14.00;99.90;;;;;;5070340;28;20668;-77
2024/04/05 02:04:52;;;;;;;5.50;1.50;;;14.10;99.90;;;;;;5071847;28;20585;-77
2024/04/05 02:07:20;;;;;;;2.90;1.20;;;14.00;99.90;;;;;;5070378;28;20578;-77
2024/04/05 02:09:47;;;;;;;12.00;1.70;;;14.00;99.90;;;;;;5070576;28;20685;-77
2024/04/05 02:12:13;;;;;;;4.43;1.50;;;14.00;99.90;;;;;;5071602;28;20640;-77
2024/04/05 02:14:39;;;;;;;6.70;1.90;;;14.00;99.90;;;;;;5087306;28;20578;-77
2024/04/05 02:17:04;;;;;;;5.03;1.57;;;14.00;99.90;;;;;;5071496;28;20184;-77
2024/04/05 02:19:30;;;;;;;4.77;1.20;;;14.00;99.90;;;;;;5071342;28;20187;-76
2024/04/05 02:21:56;;;;;;;3.13;1.20;;;14.00;99.90;;;;;;5070186;28;20200;-75
2024/04/05 02:24:21;;;;;;;4.10;1.70;;;14.00;99.90;;;;;;5071341;28;21208;-76
2024/04/05 02:26:47;;;;;;;6.80;1.70;;;14.00;99.90;;;;;;5070317;28;20203;-75
2024/04/05 02:29:13;;;;;;;4.87;1.67;;;14.00;99.90;;;;;;5070101;28;20265;-75
2024/04/05 02:31:39;;;;;;;6.20;1.50;;;14.00;99.90;;;;;;5070303;28;20173;-75
2024/04/05 02:34:05;;;;;;;4.23;1.47;;;13.90;99.90;;;;;;5071437;28;20788;-75
2024/04/05 02:36:30;;;;;;;6.90;1.77;;;13.90;99.90;;;;;;5070603;28;20180;-75
2024/04/05 02:38:56;;;;;;;7.07;1.83;;;13.90;99.90;;;;;;5071307;28;20587;-75
2024/04/05 02:41:22;;;;;;;5.20;1.53;;;13.90;99.90;;;;;;5071027;28;20211;-75
2024/04/05 02:43:48;;;;;;;6.50;1.50;;;13.90;99.90;;;;;;5071124;28;20196;-75
2024/04/05 02:46:13;;;;;;;5.87;1.30;;;13.90;99.90;;;;;;5071127;28;20184;-76
2024/04/05 02:48:39;;;;;;;5.20;1.47;;;13.90;99.90;;;;;;5069525;28;20188;-76
2024/04/05 02:51:06;;;;;;;5.80;1.40;;;13.90;99.90;;;;;;5070855;28;20194;-75
2024/04/05 02:53:31;;;;;;;7.30;1.97;;;13.80;99.90;;;;;;5062934;28;20204;-76
2024/04/05 02:55:58;;;;;;;3.60;1.43;;;13.80;99.90;;;;;;5066466;28;20587;-76
2024/04/05 02:58:24;;;;;;;5.97;1.63;;;13.80;99.90;;;;;;5068571;28;20666;-76
2024/04/05 03:00:55;;;;;;;4.90;1.20;;;13.80;99.90;;;;;;5070836;28;20661;-75
2024/04/05 03:03:21;;;;;;;3.13;1.30;;;13.80;99.90;;;;;;5052732;28;20621;-76
2024/04/05 03:05:47;;;;;;;5.33;1.83;;;13.80;99.90;;;;;;5069553;28;20942;-76
2024/04/05 03:08:13;;;;;;;3.40;1.30;;;13.80;99.90;;;;;;5070477;28;20619;-75
2024/04/05 03:10:39;;;;;;;5.40;1.60;;;13.80;99.90;;;;;;5086537;28;21211;-75
2024/04/05 03:13:04;;;;;;;8.03;1.93;;;13.70;99.90;;;;;;5070647;28;20196;-76
2024/04/05 03:15:30;;;;;;;8.63;1.90;;;13.70;99.90;;;;;;5070581;28;20181;-76
2024/04/05 03:17:56;;;;;;;5.50;1.67;;;13.70;99.90;;;;;;5069197;28;20192;-76
2024/04/05 03:20:21;;;;;;;6.50;1.20;;;13.80;99.90;;;;;;5069412;28;20689;-75
2024/04/05 03:22:47;;;;;;;5.60;1.87;;;13.80;99.90;;;;;;5070637;28;20796;-75
2024/04/05 03:25:13;;;;;;;6.17;1.53;;;13.80;99.90;;;;;;5069458;28;20302;-76
2024/04/05 03:27:39;;;;;;;7.20;1.67;;;13.80;99.90;;;;;;5070492;28;20180;-75
2024/04/05 03:30:05;;;;;;;3.80;1.00;;;13.80;99.90;;;;;;5070871;28;20173;-75
2024/04/05 03:32:30;;;;;;;4.73;1.63;;;13.90;99.90;;;;;;5069038;28;20281;-75
2024/04/05 03:34:56;;;;;;;3.77;1.73;;;13.90;99.90;;;;;;5070519;28;20605;-76
2024/04/05 03:37:22;;;;;;;4.30;1.50;;;13.90;99.90;;;;;;5070290;28;20586;-76
2024/04/05 03:39:54;;;;;;;4.70;1.60;;;14.00;99.90;;;;;;5069368;28;20535;-76
2024/04/05 03:42:20;;;;;;;3.07;1.47;;;14.00;99.90;;;;;;5070542;28;20751;-76
2024/04/05 03:44:47;;;;;;;5.63;1.53;;;14.10;99.90;;;;;;5074405;28;20703;-76
2024/04/05 03:47:13;;;;;;;7.27;1.57;;;14.10;99.90;;;;;;5074408;28;20187;-76
2024/04/05 03:49:39;;;;;;;4.23;1.00;;;14.20;99.90;;;;;;5074083;28;20582;-75
2024/04/05 03:52:05;;;;;;;4.83;1.50;;;14.20;99.90;;;;;;5074331;28;20182;-76
2024/04/05 03:54:32;;;;;;;3.40;1.33;;;14.20;99.90;;;;;;5072846;28;21218;-76
2024/04/05 03:56:58;;;;;;;8.03;1.40;;;14.30;99.90;;;;;;5074181;28;20665;-75
2024/04/05 03:59:26;;;;;;;6.60;1.43;;;14.30;99.90;;;;;;5072596;28;20930;-75
2024/04/05 04:01:52;;;;;;;3.83;1.53;;;14.30;99.90;;;;;;5072852;28;20658;-75
2024/04/05 04:04:18;;;;;;;6.37;1.80;;;14.30;99.90;;;;;;5073837;28;20947;-75
2024/04/05 04:06:44;;;;;;;5.93;2.43;;;14.30;99.90;;;;;;5072823;28;20666;-75
2024/04/05 04:09:11;;;;;;;6.10;1.40;;;14.30;99.90;;;;;;5072264;28;20597;-75
2024/04/05 04:11:37;;;;;;;5.00;1.20;;;14.30;99.90;;;;;;5072697;28;20579;-74
2024/04/05 04:14:03;;;;;;;15.37;1.37;;;14.30;99.90;;;;;;5073588;28;20614;-74
2024/04/05 04:16:29;;;;;;;5.00;1.37;;;14.40;99.90;;;;;;5072416;28;20578;-74
2024/04/05 04:18:55;;;;;;;4.33;1.37;;;14.40;99.90;;;;;;5073400;28;20601;-74
2024/04/05 04:21:24;;;;;;;5.13;1.50;;;14.40;99.90;;;;;;5073649;28;20626;-74
2024/04/05 04:23:53;;;;;;;5.40;2.00;;;14.40;99.90;;;;;;5073509;28;20199;-75
2024/04/05 04:26:22;;;;;;;5.27;1.60;;;14.50;99.90;;;;;;5073639;28;20582;-74
2024/04/05 04:28:49;;;;;;;9.00;1.70;;;14.50;99.90;;;;;;5073120;28;20622;-74
2024/04/05 04:31:16;;;;;;;6.53;2.30;;;14.50;99.90;;;;;;5072812;28;20675;-75
2024/04/05 04:33:42;;;;;;;3.50;2.43;;;14.50;99.90;;;;;;5071918;28;21341;-74
2024/04/05 04:36:08;;;;;;;6.87;1.50;;;14.50;99.90;;;;;;5073815;28;20672;-75
2024/04/05 04:38:34;;;;;;;6.00;2.50;;;14.50;99.90;;;;;;5073756;28;20964;-74
2024/04/05 04:40:59;;;;;;;6.07;1.90;;;14.50;99.90;;;;;;5073729;28;20215;-75
2024/04/05 04:43:25;;;;;;;4.67;1.40;;;14.50;99.90;;;;;;5072146;28;20192;-75
2024/04/05 04:45:52;;;;;;;6.73;1.60;;;14.50;99.90;;;;;;5055405;28;20172;-75
2024/04/05 04:48:18;;;;;;;11.67;2.33;;;14.40;99.90;;;;;;5071677;28;20586;-76
2024/04/05 04:50:44;;;;;;;4.37;1.70;;;14.40;99.90;;;;;;5071919;28;20268;-75
2024/04/05 04:53:10;;;;;;;11.23;1.63;;;14.30;99.90;;;;;;5061598;28;20194;-76
2024/04/05 04:55:36;;;;;;;6.47;1.20;;;14.30;99.90;;;;;;5070577;28;20669;-76
2024/04/05 04:58:01;;;;;;;4.03;1.50;;;14.30;99.90;;;;;;5072769;28;20661;-75
2024/04/05 05:00:27;;;;;;;3.20;1.20;;;14.20;99.90;;;;;;5072967;28;20172;-76
2024/04/05 05:02:53;;;;;;;5.27;1.40;;;14.20;99.90;;;;;;5071636;28;20654;-75
2024/04/05 05:05:18;;;;;;;5.20;1.70;;;14.30;99.90;;;;;;5072940;28;20729;-77
2024/04/05 05:07:44;;;;;;;5.83;1.57;;;14.20;99.90;;;;;;5072485;28;20673;-77
2024/04/05 05:10:11;;;;;;;7.53;2.13;;;14.20;99.90;;;;;;5072240;28;20270;-77
2024/04/05 05:12:39;;;;;;;4.33;1.37;;;14.20;99.90;;;;;;5066048;28;21025;-77
2024/04/05 05:15:05;;;;;;;9.00;2.13;;;14.20;99.90;;;;;;5070726;22;20216;-74
2024/04/05 05:17:31;;;;;;;4.73;1.27;;;14.20;99.90;;;;;;5048763;28;20617;-74
2024/04/05 05:19:57;;;;;;;5.37;1.43;;;14.20;99.90;;;;;;5038133;28;21178;-74
2024/04/05 05:22:23;;;;;;;8.50;1.40;;;14.20;99.90;;;;;;5052480;28;20636;-74
2024/04/05 05:24:48;;;;;;;6.67;1.30;;;14.20;99.90;;;;;;5052398;28;20642;-74
2024/04/05 05:27:14;;;;;;;6.60;1.77;;;14.20;99.90;;;;;;5069094;28;20172;-73
2024/04/05 05:29:40;;;;;;;7.93;2.83;;;14.10;99.90;;;;;;5052315;28;20250;-73
2024/04/05 05:32:11;;;;;;;6.03;1.93;;;14.10;99.90;;;;;;5051227;28;20196;-74
2024/04/05 05:34:38;;;;;;;6.87;2.10;;;14.10;99.90;;;;;;5064307;28;20209;-74
2024/04/05 05:37:03;;;;;;;4.17;1.40;;;14.10;99.90;;;;;;5047969;28;20588;-75
2024/04/05 05:39:29;;;;;;;5.83;1.20;;;14.10;99.90;;;;;;5068549;28;20644;-74
2024/04/05 05:41:55;;;;;;;5.23;1.80;;;14.10;99.90;;;;;;5050963;28;20236;-74
2024/04/05 05:44:20;;;;;;;6.13;1.43;;;14.10;99.90;;;;;;5050991;28;20196;-74
2024/04/05 05:46:46;;;;;;;5.47;1.87;;;14.10;99.90;;;;;;5031221;28;20188;-75
2024/04/05 05:49:12;;;;;;;7.63;1.93;;;14.10;99.90;;;;;;5030907;28;20181;-75
2024/04/05 05:51:38;;;;;;;3.37;1.30;;;14.20;99.90;;;;;;5042916;28;20188;-75
2024/04/05 05:54:04;;;;;;;7.30;2.23;;;14.20;99.90;;;;;;5052288;28;20602;-74
2024/04/05 05:56:29;;;;;;;9.00;1.87;;;14.20;99.90;;;;;;5034538;28;20185;-75
2024/04/05 05:58:55;;;;;;;7.20;1.80;;;14.20;99.90;;;;;;5052070;28;20209;-76
2024/04/05 06:01:21;;;;;;;6.83;1.63;;;14.20;99.90;;;;;;5051648;28;20211;-75
2024/04/05 06:03:47;;;;;;;8.27;1.80;;;14.30;99.90;;;;;;5056450;28;20212;-75
2024/04/05 06:06:12;;;;;;;7.27;2.10;;;14.30;99.90;;;;;;5071079;28;20275;-76
2024/04/05 06:08:40;;;;;;;8.53;1.80;;;14.30;99.90;;;;;;5025638;28;21155;-75
2024/04/05 06:11:06;;;;;;;6.20;2.00;;;14.30;99.90;;;;;;5046976;28;20546;-75
2024/04/05 06:13:32;;;;;;;12.83;3.10;;;14.30;99.90;;;;;;5041250;28;20622;-75
2024/04/05 06:15:58;;;;;;;7.83;2.63;;;14.40;99.90;;;;;;5053855;28;20607;-75
2024/04/05 06:18:28;;;;;;;6.97;2.10;;;14.50;99.90;;;;;;5033280;28;20657;-76
2024/04/05 06:20:55;;;;;;;4.93;1.50;;;14.60;99.90;;;;;;5031388;28;20580;-76
2024/04/05 06:23:25;;;;;;;5.70;1.70;;;14.80;99.90;;;;;;5047830;28;20595;-76
2024/04/05 06:25:56;;;;;;;7.30;2.10;;;15.00;99.90;;;;;;5030204;28;20589;-75
2024/04/05 06:28:22;;;;;;;7.43;2.17;;;15.10;99.90;;;;;;5039273;28;20991;-74
2024/04/05 06:30:48;;;;;;;6.23;2.33;;;15.20;99.90;;;;;;5038450;28;20584;-74
2024/04/05 06:33:14;;;;;;;5.50;2.03;;;15.20;99.90;;;;;;5031474;28;20584;-75
2024/04/05 06:35:40;;;;;;;5.63;2.07;;;15.30;99.90;;;;;;5042915;28;20287;-75
2024/04/05 06:38:07;;;;;;;10.10;2.30;;;15.40;99.90;;;;;;5049442;28;20609;-76
2024/04/05 06:40:33;;;;;;;6.43;1.83;;;15.40;99.90;;;;;;5047336;28;20596;-75
2024/04/05 06:42:59;;;;;;;5.80;1.30;;;15.50;99.90;;;;;;5064988;28;21258;-75
2024/04/05 06:45:25;;;;;;;4.90;1.90;;;15.50;99.90;;;;;;5046370;28;20627;-76
2024/04/05 06:47:51;;;;;;;7.20;1.93;;;15.50;99.90;;;;;;5045155;28;20247;-75
2024/04/05 06:50:16;;;;;;;6.90;1.83;;;15.50;99.90;;;;;;5040584;28;20172;-75
2024/04/05 06:52:42;;;;;;;10.77;2.50;;;15.50;99.90;;;;;;5044121;28;20177;-76
2024/04/05 06:55:08;;;;;;;4.77;1.70;;;15.70;99.90;;;;;;5047302;28;20547;-75
2024/04/05 06:57:35;;;;;;;12.07;2.43;;;15.80;99.90;;;;;;5061857;28;20187;-75
2024/04/05 07:00:02;;;;;;;8.60;1.80;;;15.90;99.90;;;;;;5055049;28;21091;-77
2024/04/05 07:02:28;;;;;;;7.33;1.97;;;16.00;99.90;;;;;;5048960;28;21040;-77
2024/04/05 07:04:54;;;;;;;10.23;2.20;;;16.10;99.90;;;;;;5032984;28;20623;-76
2024/04/05 07:07:20;;;;;;;6.90;2.53;;;16.30;99.90;;;;;;5050674;28;20172;-78
2024/04/05 07:09:45;;;;;;;6.93;2.20;;;16.40;99.90;;;;;;5051804;28;20637;-78
2024/04/05 07:12:11;;;;;;;6.33;1.77;;;16.40;99.90;;;;;;5050366;28;20173;-77
2024/04/05 07:14:37;;;;;;;9.37;1.77;;;16.40;99.90;;;;;;5050437;28;20674;-78
2024/04/05 07:17:03;;;;;;;6.73;1.70;;;16.30;99.90;;;;;;5050311;28;20666;-77
2024/04/05 07:19:30;;;;;;;6.03;2.27;;;16.30;99.90;;;;;;5047570;28;20180;-77
2024/04/05 07:21:56;;;;;;;6.10;1.80;;;16.30;99.90;;;;;;5043141;28;20631;-77
2024/04/05 07:24:21;;;;;;;12.13;2.63;;;16.20;99.90;;;;;;5041924;28;20965;-77
2024/04/05 07:26:47;;;;;;;5.70;1.53;;;16.20;99.90;;;;;;5043245;28;20166;-77
2024/04/05 07:29:13;;;;;;;5.87;1.90;;;16.10;99.90;;;;;;5045151;28;20246;-77
2024/04/05 07:31:39;;;;;;;6.30;1.97;;;16.10;99.90;;;;;;5030843;28;20811;-76
2024/04/05 07:34:05;;;;;;;9.37;2.03;;;16.20;99.90;;;;;;5030511;28;20193;-76
2024/04/05 07:36:32;;;;;;;5.40;1.33;;;16.20;99.90;;;;;;5038517;28;20702;-76
2024/04/05 07:38:58;;;;;;;5.57;2.00;;;16.30;99.90;;;;;;5055850;28;20681;-75
2024/04/05 07:41:24;;;;;;;8.37;2.30;;;16.30;99.90;;;;;;5061269;28;20642;-75
2024/04/05 07:43:50;;;;;;;8.40;2.77;;;16.40;99.90;;;;;;5057301;28;20632;-75
2024/04/05 07:46:16;;;;;;;5.03;1.57;;;16.50;99.90;;;;;;5034393;28;20577;-75
2024/04/05 07:48:42;;;;;;;9.10;1.93;;;16.50;99.90;;;;;;5020754;28;20177;-75
2024/04/05 07:51:10;;;;;;;6.37;1.57;;;16.60;99.90;;;;;;5045630;28;20600;-75
2024/04/05 07:53:36;;;;;;;5.80;1.77;;;16.70;99.90;;;;;;5046781;28;20620;-75
2024/04/05 07:56:03;;;;;;;5.30;1.50;;;16.80;99.90;;;;;;5045782;28;20588;-74
2024/04/05 07:58:29;;;;;;;7.60;2.37;;;16.90;99.90;;;;;;5045456;28;20581;-74
2024/04/05 08:00:56;;;;;;;6.67;2.03;;;17.10;99.90;;;;;;5033549;28;20595;-75
2024/04/05 08:03:22;;;;;;;3.60;1.57;;;17.30;99.90;;;;;;5063867;28;20598;-74
2024/04/05 08:05:48;;;;;;;3.13;1.20;;;17.40;99.90;;;;;;5042115;28;20626;-74
2024/04/05 08:08:14;;;;;;;6.60;1.87;;;17.60;99.90;;;;;;5046910;28;20615;-75
2024/04/05 08:10:40;;;;;;;5.17;1.33;;;17.70;99.90;;;;;;5051936;28;20607;-74
2024/04/05 08:13:05;;;;;;;5.83;1.80;;;17.60;99.90;;;;;;5042447;28;20591;-74
2024/04/05 08:15:31;;;;;;;11.57;3.03;;;17.60;99.90;;;;;;5029358;28;20644;-74
2024/04/05 08:17:58;;;;;;;7.07;2.40;;;17.60;99.90;;;;;;5035102;28;20183;-74
2024/04/05 08:20:23;;;;;;;5.27;1.30;;;17.60;99.90;;;;;;5051241;28;20591;-74
2024/04/05 08:22:49;;;;;;;4.93;1.80;;;17.50;99.90;;;;;;5030012;28;20694;-74
2024/04/05 08:25:16;;;;;;;4.23;1.47;;;17.50;99.90;;;;;;5029963;28;20616;-75
2024/04/05 08:27:45;;;;;;;4.63;1.83;;;17.50;99.90;;;;;;5036701;28;20588;-74
2024/04/05 08:30:18;;;;;;;5.07;1.60;;;17.50;99.90;;;;;;5031717;28;20588;-74
2024/04/05 08:32:44;;;;;;;6.93;1.67;;;17.40;99.90;;;;;;5032394;28;20588;-75
2024/04/05 08:35:10;;;;;;;4.10;1.70;;;17.30;99.90;;;;;;5052056;28;20622;-74
2024/04/05 08:37:39;;;;;;;3.67;1.13;;;17.30;99.90;;;;;;5067890;28;20595;-75
2024/04/05 08:40:08;;;;;;;7.40;1.83;;;17.30;99.90;;;;;;5048825;28;20596;-75
2024/04/05 08:42:34;;;;;;;5.43;1.83;;;17.30;99.90;;;;;;5059848;28;20630;-75
2024/04/05 08:45:03;;;;;;;5.63;1.60;;;17.20;99.90;;;;;;5066685;28;21063;-74
2024/04/05 08:47:34;;;;;;;2.80;1.10;;;17.20;99.90;;;;;;5034711;28;21245;-74
2024/04/05 08:50:05;;;;;;;4.83;1.47;;;17.30;99.90;;;;;;5053090;28;21199;-74
2024/04/05 08:52:31;;;;;;;3.30;1.20;;;17.30;99.90;;;;;;5052952;28;20622;-74
2024/04/05 08:54:59;;;;;;;8.80;1.80;;;17.30;99.90;;;;;;5064543;28;21223;-74
2024/04/05 08:57:35;;;;;;;6.70;1.50;;;17.30;99.90;;;;;;5050912;28;20599;-74
2024/04/05 09:00:06;;;;;;;4.70;1.30;;;17.40;99.90;;;;;;5056853;28;20594;-73
2024/04/05 09:02:33;;;;;;;3.23;1.17;;;17.40;99.90;;;;;;5062989;28;20642;-75
2024/04/05 09:05:03;;;;;;;4.63;1.60;;;17.50;99.90;;;;;;5051359;28;20622;-74
2024/04/05 09:07:29;;;;;;;5.33;1.00;;;17.60;99.90;;;;;;5052381;28;20986;-75
2024/04/05 09:09:55;;;;;;;4.10;1.30;;;17.80;99.90;;;;;;5052715;28;20580;-75
2024/04/05 09:12:26;;;;;;;6.40;1.30;;;17.80;99.90;;;;;;5051459;28;20584;-74
2024/04/05 09:14:58;;;;;;;4.67;1.20;;;18.00;99.90;;;;;;5052428;28;20204;-74
2024/04/05 09:17:25;;;;;;;5.30;1.20;;;18.00;99.90;;;;;;5048171;28;20591;-74
2024/04/05 09:20:05;;;;;;;7.93;1.83;;;18.10;99.90;;;;;;5052869;28;20586;-74
2024/04/05 09:22:31;;;;;;;3.83;1.63;;;18.10;99.90;;;;;;5041910;28;20709;-73
2024/04/05 09:25:03;;;;;;;6.30;1.43;;;18.30;99.90;;;;;;5042366;28;20611;-73
2024/04/05 09:27:32;;;;;;;4.27;1.20;;;18.40;99.90;;;;;;5051061;28;20194;-73
2024/04/05 09:30:05;;;;;;;5.27;1.20;;;18.70;99.90;;;;;;5051310;28;20584;-74
2024/04/05 09:32:31;;;;;;;5.80;1.50;;;18.80;99.90;;;;;;5069116;28;20587;-73
2024/04/05 09:34:57;;;;;;;3.00;1.07;;;19.00;99.90;;;;;;5038379;28;20634;-74
2024/04/05 09:37:27;;;;;;;7.83;1.50;;;19.00;99.90;;;;;;5039954;28;20592;-73
2024/04/05 09:39:53;;;;;;;3.77;1.23;;;19.10;99.90;;;;;;5044420;28;20598;-73
2024/04/05 09:42:22;;;;;;;4.93;1.10;;;19.00;99.90;;;;;;5042519;28;20634;-73
2024/04/05 09:44:51;;;;;;;3.20;1.13;;;18.90;99.90;;;;;;5045046;28;20612;-73
2024/04/05 09:47:20;;;;;;;3.77;1.20;;;18.80;99.90;;;;;;5047189;28;20593;-73
2024/04/05 09:49:46;;;;;;;4.20;1.13;;;18.80;99.90;;;;;;5048644;28;20591;-73
2024/04/05 09:52:14;;;;;;;4.37;1.13;;;18.80;99.90;;;;;;5032885;28;20580;-73
2024/04/05 09:54:41;;;;;;;5.70;1.63;;;18.80;99.90;;;;;;5032390;28;21006;-73
2024/04/05 09:57:11;;;;;;;3.93;1.30;;;18.80;99.90;;;;;;5032674;28;20600;-74
2024/04/05 09:59:39;;;;;;;4.17;1.00;;;18.70;99.90;;;;;;5033760;28;20719;-74
2024/04/05 10:02:07;;;;;;;3.30;1.20;;;18.70;99.90;;;;;;5043918;28;20677;-74
2024/04/05 10:04:37;;;;;;;3.33;1.00;;;18.60;99.90;;;;;;5049706;28;20623;-74
2024/04/05 10:07:06;;;;;;;5.20;1.40;;;18.60;99.90;;;;;;5037040;28;20663;-74
2024/04/05 10:09:35;;;;;;;4.20;1.43;;;18.70;99.90;;;;;;5034008;28;20623;-73
2024/04/05 10:12:12;;;;;;;4.10;1.17;;;18.80;99.90;;;;;;5043853;28;20618;-74
2024/04/05 10:14:38;;;;;;;3.77;1.60;;;18.80;99.90;;;;;;5040372;28;20727;-74
2024/04/05 10:17:09;;;;;;;4.60;1.93;;;18.80;99.90;;;;;;5019330;28;20687;-74
2024/04/05 10:19:37;;;;;;;5.40;1.40;;;18.90;99.90;;;;;;5032225;28;21144;-73
2024/04/05 10:22:19;;;;;;;4.03;1.30;;;19.00;99.90;;;;;;5035580;28;20634;-74
2024/04/05 10:24:44;;;;;;;7.47;1.10;;;19.00;99.90;;;;;;5041514;28;20630;-73
2024/04/05 10:27:22;;;;;;;6.77;1.70;;;19.10;99.90;;;;;;5036859;28;21215;-73
2024/04/05 10:30:08;;;;;;;4.50;1.97;;;19.10;99.90;;;;;;5048766;28;20595;-74
2024/04/05 10:32:36;;;;;;;5.70;1.60;;;19.00;99.90;;;;;;5031247;28;20603;-74
2024/04/05 10:35:06;;;;;;;7.10;2.83;;;19.10;99.90;;;;;;5029898;28;20628;-74
2024/04/05 10:37:33;;;;;;;3.57;1.97;;;19.00;99.90;;;;;;5029847;28;20621;-73
2024/04/05 10:40:12;;;;;;;13.63;2.57;;;19.00;99.90;;;;;;5046115;28;20713;-74
2024/04/05 10:42:41;;;;;;;4.50;1.53;;;19.00;99.90;;;;;;5047341;28;20642;-74
2024/04/05 10:45:07;;;;;;;4.70;2.63;;;19.00;99.90;;;;;;5049428;28;20631;-74
2024/04/05 10:47:35;;;;;;;5.07;2.30;;;19.00;99.90;;;;;;5051542;28;20591;-73
2024/04/05 10:50:04;;;;;;;4.40;2.00;;;18.90;99.90;;;;;;5029674;28;20588;-74
2024/04/05 10:52:33;;;;;;;4.53;1.73;;;19.00;99.90;;;;;;5029845;28;20670;-73
2024/04/05 10:55:12;;;;;;;3.00;1.50;;;18.90;99.90;;;;;;5012980;28;20612;-73
2024/04/05 10:57:38;;;;;;;4.63;1.60;;;18.90;99.90;;;;;;5058703;28;20707;-73
2024/04/05 11:00:14;;;;;;;3.20;2.03;;;19.00;99.90;;;;;;5031297;28;20588;-75
2024/04/05 11:02:43;;;;;;;3.77;2.30;;;19.00;99.90;;;;;;5058668;28;20993;-74
2024/04/05 11:05:12;;;;;;;4.30;1.50;;;19.00;99.90;;;;;;5050512;28;21195;-75
2024/04/05 11:07:40;;;;;;;3.73;1.70;;;19.10;99.90;;;;;;5050376;28;20946;-75
2024/04/05 11:10:16;;;;;;;3.20;1.20;;;19.10;99.90;;;;;;5044149;28;20588;-74
2024/04/05 11:12:44;;;;;;;3.70;1.20;;;19.20;99.90;;;;;;5041589;28;20591;-74
2024/04/05 11:15:10;;;;;;;3.13;1.10;;;19.30;99.90;;;;;;5036483;28;20642;-74
2024/04/05 11:17:36;;;;;;;3.93;0.90;;;19.40;99.90;;;;;;5037450;28;20980;-74
2024/04/05 11:20:13;;;;;;;4.37;0.90;;;19.60;99.90;;;;;;5028714;28;20599;-74
2024/04/05 11:22:43;;;;;;;3.20;1.40;;;19.70;99.90;;;;;;5028750;28;20638;-74
2024/04/05 11:25:20;;;;;;;2.57;0.80;;;19.80;99.90;;;;;;5028609;28;20612;-74
2024/04/05 11:27:46;;;;;;;2.43;0.90;;;19.90;99.90;;;;;;5028584;28;20943;-74
2024/04/05 11:30:12;;;;;;;3.30;0.90;;;20.00;99.90;;;;;;5027554;28;20627;-74
2024/04/05 11:32:41;;;;;;;2.37;0.80;;;20.10;99.90;;;;;;5010807;28;20589;-74
2024/04/05 11:35:08;;;;;;;2.27;0.93;;;20.30;99.90;;;;;;5044130;28;20201;-74
2024/04/05 11:37:34;;;;;;;2.87;0.80;;;20.30;99.90;;;;;;5028534;28;20683;-74
2024/04/05 11:40:00;;;;;;;3.20;1.03;;;20.40;99.90;;;;;;5027593;28;21296;-74
2024/04/05 11:42:26;;;;;;;1.80;0.80;;;20.50;99.90;;;;;;5012686;28;20228;-74
2024/04/05 11:44:53;;;;;;;2.37;0.90;;;20.50;99.90;;;;;;5030416;28;20608;-74
2024/04/05 11:47:21;;;;;;;2.63;0.80;;;20.60;99.90;;;;;;5029736;28;20185;-74
2024/04/05 11:49:48;;;;;;;3.47;1.00;;;20.60;99.90;;;;;;5024788;28;20626;-75
2024/04/05 11:52:14;;;;;;;2.80;0.90;;;20.70;99.90;;;;;;5032454;28;20591;-74
2024/04/05 11:54:39;;;;;;;2.27;1.00;;;20.80;99.90;;;;;;5050095;28;20710;-74
2024/04/05 11:57:05;;;;;;;2.17;0.83;;;20.90;99.90;;;;;;5045770;28;20185;-75
2024/04/05 11:59:31;;;;;;;2.10;0.80;;;21.00;99.90;;;;;;5012526;28;20255;-74
2024/04/05 12:01:56;;;;;;;2.70;0.90;;;21.10;99.90;;;;;;5029092;28;20197;-73
2024/04/05 12:04:23;;;;;;;5.57;1.10;;;21.20;99.90;;;;;;5030883;28;20239;-74
2024/04/05 12:06:50;;;;;;;2.53;0.90;;;21.30;99.90;;;;;;5049380;28;20674;-74
2024/04/05 12:09:16;;;;;;;2.30;0.87;;;21.40;99.90;;;;;;5032596;28;20607;-74
2024/04/05 12:11:45;;;;;;;3.10;0.70;;;21.50;99.90;;;;;;5035560;28;20580;-74
2024/04/05 12:14:11;;;;;;;2.83;1.10;;;21.50;99.90;;;;;;5067070;22;20690;-80
2024/04/05 12:16:37;;;;;;;2.10;0.73;;;21.60;99.90;;;;;;5068802;28;20591;-80
2024/04/05 12:19:03;;;;;;;2.67;1.00;;;21.60;99.90;;;;;;5066022;28;20597;-80
2024/04/05 12:21:29;;;;;;;2.50;1.00;;;21.70;99.90;;;;;;5073884;28;20554;-80
2024/04/05 12:23:54;;;;;;;1.90;0.70;;;21.70;99.90;;;;;;5077743;28;20620;-81
2024/04/05 12:26:20;;;;;;;1.60;0.70;;;21.70;99.90;;;;;;5053520;28;20356;-80
2024/04/05 12:28:46;;;;;;;3.60;0.80;;;21.60;99.90;;;;;;5037225;28;20181;-80
2024/04/05 12:31:12;;;;;;;3.37;0.93;;;21.60;99.90;;;;;;5036121;28;20213;-80
2024/04/05 12:33:41;;;;;;;2.20;0.70;;;21.50;99.90;;;;;;5053508;28;21072;-80
2024/04/05 12:36:09;;;;;;;2.33;0.60;;;21.40;99.90;;;;;;5052749;28;20579;-80
2024/04/05 12:38:39;;;;;;;1.90;0.70;;;21.40;99.90;;;;;;5037561;28;20905;-80
2024/04/05 12:41:08;;;;;;;3.50;0.90;;;21.40;99.90;;;;;;5034010;28;20584;-81
2024/04/05 12:43:37;;;;;;;1.97;0.97;;;21.40;99.90;;;;;;5049230;28;20619;-81
2024/04/05 12:46:07;;;;;;;2.90;0.90;;;21.40;99.90;;;;;;5035824;28;20641;-81